Time;durP1;ratioP1;P1;durP2;ratioP2;P2;SDS_P1;SDS_P2;PMS_P1;PMS_P2;Temp;Humidity;BMP_temperature;BMP_pressure;BME280_temperature;BME280_humidity;BME280_pressure;Samples;Min_cycle;Max_cycle;Signal;HPM_P1;HPM_P2
2022/12/03 00:08:18;;;;;;;0.20;0.10;;;7.70;99.90;;;;;;21092018;28;20396;-69
2022/12/03 00:18:23;;;;;;;0.20;0.05;;;7.70;99.90;;;;;;21109668;28;20396;-69
2022/12/03 00:28:27;;;;;;;0.20;0.10;;;7.70;99.90;;;;;;21125060;28;20454;-69
2022/12/03 00:38:32;;;;;;;0.20;0.10;;;7.60;99.90;;;;;;21125163;28;20410;-68
2022/12/03 00:48:36;;;;;;;0.20;0.10;;;7.60;99.90;;;;;;21125830;28;20438;-69
2022/12/03 00:58:41;;;;;;;0.20;0.10;;;7.30;99.90;;;;;;21123891;28;20424;-68
2022/12/03 01:08:45;;;;;;;0.20;0.10;;;7.20;99.90;;;;;;21131390;28;20523;-69
2022/12/03 01:18:51;;;;;;;0.20;0.10;;;7.40;99.90;;;;;;21119584;28;20433;-68
2022/12/03 01:28:55;;;;;;;0.20;0.10;;;7.50;99.90;;;;;;21139441;28;20691;-67
2022/12/03 01:39:00;;;;;;;0.20;0.10;;;7.20;99.90;;;;;;21117864;28;20432;-68
2022/12/03 01:49:04;;;;;;;0.20;0.10;;;7.20;99.90;;;;;;21137188;28;20464;-68
2022/12/03 01:59:14;;;;;;;0.20;0.10;;;7.30;99.90;;;;;;21118205;28;20432;-68
2022/12/03 02:09:17;;;;;;;0.20;0.10;;;7.30;99.90;;;;;;21119078;28;20432;-68
2022/12/03 02:19:26;;;;;;;0.20;0.10;;;7.30;99.90;;;;;;21133634;28;20546;-69
2022/12/03 02:29:32;;;;;;;0.20;0.10;;;7.50;99.90;;;;;;21133500;28;20416;-69
2022/12/03 02:39:38;;;;;;;0.20;0.10;;;7.40;99.90;;;;;;21114749;28;20690;-70
2022/12/03 02:49:43;;;;;;;0.20;0.10;;;7.20;99.90;;;;;;21131609;28;20839;-70
2022/12/03 02:59:47;;;;;;;0.20;0.10;;;7.00;99.90;;;;;;21132298;28;20447;-69
2022/12/03 03:09:52;;;;;;;0.20;0.10;;;7.10;99.90;;;;;;21129340;28;20412;-69
2022/12/03 03:19:56;;;;;;;0.20;0.10;;;7.10;99.90;;;;;;21130415;28;20405;-69
2022/12/03 03:30:01;;;;;;;0.20;0.10;;;7.00;99.90;;;;;;21109166;28;20455;-69
2022/12/03 03:40:07;;;;;;;0.20;0.10;;;7.00;99.90;;;;;;21128245;28;20458;-68
2022/12/03 03:50:14;;;;;;;0.20;0.03;;;7.10;99.90;;;;;;21108625;28;20466;-68
2022/12/03 04:00:18;;;;;;;0.20;0.10;;;7.00;99.90;;;;;;21108262;28;20397;-68
2022/12/03 04:20:44;;;;;;;0.20;0.10;;;6.60;99.90;;;;;;21127534;28;20738;-69
2022/12/03 04:30:49;;;;;;;0.20;0.10;;;6.60;99.90;;;;;;21105626;28;20411;-69
2022/12/03 04:41:03;;;;;;;0.20;0.00;;;6.80;99.90;;;;;;21128103;28;20449;-68
2022/12/03 04:51:08;;;;;;;0.20;0.10;;;6.60;99.90;;;;;;21122686;28;20732;-68
2022/12/03 05:01:12;;;;;;;0.20;0.10;;;6.40;99.90;;;;;;21140621;28;20396;-69
2022/12/03 05:11:17;;;;;;;0.20;0.10;;;6.40;99.90;;;;;;21123383;28;20384;-70
2022/12/03 05:21:21;;;;;;;0.20;0.10;;;6.40;99.90;;;;;;21134406;28;20412;-69
2022/12/03 05:31:26;;;;;;;0.20;0.10;;;6.30;99.90;;;;;;21119905;28;20663;-69
2022/12/03 05:51:52;;;;;;;0.20;0.10;;;6.30;99.90;;;;;;21117084;28;20404;-68
2022/12/03 06:02:01;;;;;;;0.20;0.10;;;6.20;99.90;;;;;;21137082;28;20409;-69
2022/12/03 06:12:08;;;;;;;0.20;0.10;;;6.40;99.90;;;;;;21116958;28;20434;-69
2022/12/03 06:22:12;;;;;;;0.20;0.00;;;6.30;99.90;;;;;;21135028;28;20413;-69
2022/12/03 06:32:17;;;;;;;0.20;0.10;;;6.40;99.90;;;;;;21135068;28;20404;-68
2022/12/03 06:42:21;;;;;;;0.20;0.10;;;6.30;99.90;;;;;;21131639;28;20400;-68
2022/12/03 06:52:26;;;;;;;0.20;0.10;;;6.20;99.90;;;;;;21131217;28;20643;-68
2022/12/03 07:02:30;;;;;;;0.20;0.10;;;6.10;99.90;;;;;;21129958;28;20439;-69
2022/12/03 07:12:35;;;;;;;0.20;0.10;;;6.30;99.90;;;;;;21114480;28;20505;-69
2022/12/03 07:22:39;;;;;;;0.20;0.10;;;6.20;99.90;;;;;;21127623;28;20423;-67
2022/12/03 07:32:44;;;;;;;0.20;0.10;;;6.10;99.90;;;;;;21129498;28;20487;-68
2022/12/03 07:42:48;;;;;;;0.20;0.10;;;6.20;99.90;;;;;;21127691;28;20415;-68
2022/12/03 07:52:53;;;;;;;0.20;0.10;;;6.20;99.90;;;;;;21108728;28;20396;-69
2022/12/03 08:02:57;;;;;;;0.20;0.10;;;6.20;99.90;;;;;;21107366;28;20425;-70
2022/12/03 08:13:19;;;;;;;0.20;0.10;;;6.40;99.90;;;;;;21065871;28;20428;-69
2022/12/03 08:23:24;;;;;;;0.20;0.00;;;6.50;99.90;;;;;;21122914;28;20416;-68
2022/12/03 08:33:34;;;;;;;0.20;0.10;;;6.90;99.90;;;;;;21106382;28;20610;-70
2022/12/03 08:43:41;;;;;;;0.20;0.10;;;7.50;99.90;;;;;;21104264;28;20479;-69
2022/12/03 08:53:48;;;;;;;0.20;0.10;;;7.80;99.90;;;;;;21120890;28;20430;-69
2022/12/03 09:03:54;;;;;;;0.20;0.10;;;8.70;99.90;;;;;;21124903;28;20427;-69
2022/12/03 09:13:59;;;;;;;0.20;0.08;;;9.50;99.90;;;;;;21105252;28;20394;-69
2022/12/03 09:24:03;;;;;;;0.20;0.10;;;9.90;99.90;;;;;;21123529;28;20401;-69
2022/12/03 09:34:08;;;;;;;0.20;0.10;;;10.20;99.90;;;;;;21134069;28;20416;-70
2022/12/03 09:44:12;;;;;;;0.20;0.00;;;10.70;99.90;;;;;;21135973;28;20397;-70
2022/12/03 09:54:25;;;;;;;0.20;0.00;;;11.20;99.90;;;;;;21134202;28;20408;-70
2022/12/03 10:04:29;;;;;;;0.20;0.07;;;11.80;99.90;;;;;;21134921;28;20423;-70
2022/12/03 10:14:35;;;;;;;0.20;0.00;;;12.30;99.90;;;;;;21133954;28;20401;-69
2022/12/03 10:24:39;;;;;;;0.20;0.10;;;12.70;99.90;;;;;;21112796;28;20403;-70
2022/12/03 10:34:44;;;;;;;0.20;0.10;;;13.90;99.90;;;;;;21131342;28;20590;-71
2022/12/03 10:44:52;;;;;;;0.20;0.10;;;14.20;99.90;;;;;;21107571;28;20420;-70
2022/12/03 10:54:58;;;;;;;0.20;0.10;;;14.80;99.90;;;;;;21127667;28;20966;-72
2022/12/03 11:05:02;;;;;;;0.20;0.10;;;14.90;99.90;;;;;;21127945;28;20411;-70
2022/12/03 11:15:15;;;;;;;0.20;0.10;;;15.30;99.90;;;;;;21110777;28;20415;-70
2022/12/03 11:25:49;;;;;;;0.20;0.00;;;16.20;99.90;;;;;;21126681;28;20611;-70
2022/12/03 11:36:14;;;;;;;0.20;0.10;;;15.80;99.90;;;;;;21106265;28;20407;-71
2022/12/03 11:46:19;;;;;;;0.20;0.10;;;16.10;99.90;;;;;;21124833;28;20404;-71
2022/12/03 11:56:27;;;;;;;0.20;0.10;;;16.60;99.90;;;;;;21121573;28;20397;-73
2022/12/03 12:06:40;;;;;;;0.20;0.10;;;16.80;99.90;;;;;;21101897;28;21101;-70
2022/12/03 12:16:50;;;;;;;0.20;0.00;;;16.30;99.90;;;;;;21118523;28;20483;-71
2022/12/03 12:26:54;;;;;;;0.20;0.10;;;16.40;99.90;;;;;;21120670;28;20472;-70
2022/12/03 12:37:00;;;;;;;0.20;0.00;;;16.10;99.90;;;;;;21122937;28;20409;-69
2022/12/03 12:47:12;;;;;;;0.20;0.10;;;16.90;99.90;;;;;;21123464;28;20412;-69
2022/12/03 12:57:22;;;;;;;0.20;0.07;;;16.40;99.90;;;;;;21115536;28;20408;-69
2022/12/03 13:07:26;;;;;;;0.20;0.10;;;16.50;99.90;;;;;;21131352;28;20400;-69
2022/12/03 13:17:31;;;;;;;0.20;0.10;;;16.40;99.90;;;;;;21112599;28;20398;-69
2022/12/03 13:27:35;;;;;;;0.20;0.10;;;16.20;99.90;;;;;;21135840;28;20412;-69
2022/12/03 13:37:40;;;;;;;0.20;0.10;;;16.20;99.90;;;;;;21131287;28;20396;-70
2022/12/03 13:47:45;;;;;;;0.20;0.10;;;15.90;99.90;;;;;;21116189;28;20405;-70
2022/12/03 13:57:50;;;;;;;0.20;0.00;;;16.70;99.90;;;;;;21132350;28;20407;-70
2022/12/03 14:07:56;;;;;;;0.20;0.05;;;17.10;99.90;;;;;;21115791;28;20808;-71
2022/12/03 14:18:02;;;;;;;0.20;0.00;;;17.90;99.90;;;;;;21131139;28;20400;-70
2022/12/03 14:28:07;;;;;;;0.20;0.10;;;19.10;99.90;;;;;;21131814;28;20412;-70
2022/12/03 14:38:12;;;;;;;0.20;0.10;;;17.70;99.90;;;;;;21135189;28;20434;-70
2022/12/03 14:48:16;;;;;;;0.20;0.10;;;16.20;99.90;;;;;;21112109;28;20412;-70
2022/12/03 15:23:03;;;;;;;0.20;0.10;;;15.20;99.90;;;;;;21042490;28;20410;-70
2022/12/03 15:33:06;;;;;;;0.20;0.00;;;15.90;99.90;;;;;;21047746;28;20413;-70
2022/12/03 15:43:12;;;;;;;0.20;0.05;;;15.10;99.90;;;;;;21046996;28;20402;-70
2022/12/03 15:53:15;;;;;;;0.20;0.10;;;14.30;99.90;;;;;;21027802;28;20398;-68
2022/12/03 16:03:21;;;;;;;0.20;0.10;;;13.90;99.90;;;;;;21028988;28;20828;-70
2022/12/03 16:13:25;;;;;;;0.20;0.03;;;13.70;99.90;;;;;;21026072;28;20402;-69
2022/12/03 16:23:30;;;;;;;0.20;0.10;;;13.30;99.90;;;;;;21040107;28;20402;-70
2022/12/03 16:33:33;;;;;;;0.20;0.10;;;13.10;99.90;;;;;;21019657;28;20409;-69
2022/12/03 16:43:38;;;;;;;0.20;0.03;;;12.90;99.90;;;;;;21052100;28;20423;-71
2022/12/03 16:53:43;;;;;;;0.20;0.10;;;12.20;99.90;;;;;;21050949;28;20885;-70
2022/12/03 17:03:48;;;;;;;0.20;0.10;;;11.70;99.90;;;;;;21050286;28;20421;-69
2022/12/03 17:13:51;;;;;;;0.20;0.10;;;11.20;99.90;;;;;;21049866;28;20410;-69
2022/12/03 17:23:56;;;;;;;0.20;0.10;;;11.00;99.90;;;;;;21036037;28;20413;-69
2022/12/03 17:34:00;;;;;;;0.20;0.10;;;10.50;99.90;;;;;;21050848;28;20398;-71
2022/12/03 17:44:05;;;;;;;0.20;0.10;;;10.10;99.90;;;;;;21053878;28;20425;-70
2022/12/03 17:54:14;;;;;;;0.20;0.10;;;9.80;99.90;;;;;;21051004;28;20497;-70
2022/12/03 18:04:19;;;;;;;0.20;0.10;;;10.20;99.90;;;;;;21049570;28;20406;-68
2022/12/03 18:14:23;;;;;;;0.20;0.10;;;10.00;99.90;;;;;;21050884;28;20398;-69
2022/12/03 18:24:28;;;;;;;0.20;0.00;;;10.00;99.90;;;;;;21048590;28;20746;-69
2022/12/03 18:34:32;;;;;;;0.20;0.10;;;10.40;99.90;;;;;;21049079;28;20405;-69
2022/12/03 18:44:37;;;;;;;0.20;0.10;;;10.40;99.90;;;;;;21047051;28;20413;-69
2022/12/03 18:54:40;;;;;;;0.20;0.10;;;10.40;99.90;;;;;;21045974;28;20401;-69
2022/12/03 19:04:46;;;;;;;0.20;0.00;;;9.90;99.90;;;;;;21044246;28;20409;-70
2022/12/03 19:14:50;;;;;;;0.20;0.10;;;10.20;99.90;;;;;;21046850;28;20876;-69
2022/12/03 19:24:55;;;;;;;0.20;0.00;;;9.90;99.90;;;;;;21044847;28;20394;-69
2022/12/03 19:34:59;;;;;;;0.20;0.10;;;9.80;99.90;;;;;;21044698;28;21367;-69
2022/12/03 19:45:06;;;;;;;0.20;0.10;;;10.00;99.90;;;;;;21042982;28;20410;-70
2022/12/03 19:55:12;;;;;;;0.20;0.10;;;10.20;99.90;;;;;;21026988;28;20395;-69
2022/12/03 20:05:17;;;;;;;0.20;0.00;;;9.80;99.90;;;;;;21042806;28;20410;-70
2022/12/03 20:15:21;;;;;;;0.20;0.10;;;9.50;99.90;;;;;;21040351;28;20484;-69
2022/12/03 20:25:26;;;;;;;0.20;0.10;;;9.50;99.90;;;;;;21043216;28;20467;-65
2022/12/03 20:35:30;;;;;;;0.20;0.10;;;9.30;99.90;;;;;;21039148;28;20406;-71
2022/12/03 20:45:35;;;;;;;0.20;0.00;;;9.70;99.90;;;;;;21041179;28;20440;-70
2022/12/03 20:55:39;;;;;;;0.20;0.10;;;10.50;99.90;;;;;;21041457;28;20406;-69
2022/12/03 21:05:44;;;;;;;0.20;0.10;;;10.40;99.90;;;;;;21022824;28;20538;-69
2022/12/03 21:15:48;;;;;;;0.20;0.10;;;10.20;99.90;;;;;;21034348;28;20413;-71
2022/12/03 21:25:53;;;;;;;0.20;0.10;;;10.30;99.90;;;;;;21045644;28;20413;-69
2022/12/03 21:35:57;;;;;;;0.20;0.03;;;10.50;99.90;;;;;;21032655;28;20418;-69
2022/12/03 21:46:05;;;;;;;0.20;0.00;;;10.70;99.90;;;;;;21050704;28;20414;-69
2022/12/03 21:56:30;;;;;;;0.20;0.10;;;10.80;99.90;;;;;;21029781;28;20414;-70
2022/12/03 22:06:35;;;;;;;0.20;0.00;;;10.70;99.90;;;;;;21031285;28;20683;-70
2022/12/03 22:16:39;;;;;;;0.20;0.10;;;10.70;99.90;;;;;;21048810;28;20413;-69
2022/12/03 22:26:45;;;;;;;0.20;0.10;;;10.40;99.90;;;;;;21050099;28;20445;-69
2022/12/03 22:36:48;;;;;;;0.20;0.10;;;10.40;99.90;;;;;;21029182;28;20398;-69
2022/12/03 22:46:54;;;;;;;0.20;0.10;;;10.40;99.90;;;;;;21031049;28;20418;-69
2022/12/03 22:56:57;;;;;;;0.20;0.10;;;10.30;99.90;;;;;;21047042;28;20413;-70
2022/12/03 23:07:02;;;;;;;0.20;0.10;;;10.20;99.90;;;;;;21045244;28;20617;-70
2022/12/03 23:17:06;;;;;;;6.30;5.90;;;10.40;99.90;;;;;;21046637;28;20402;-69
2022/12/03 23:27:11;;;;;;;0.20;0.00;;;10.40;99.90;;;;;;21028370;28;20417;-69
2022/12/03 23:37:15;;;;;;;0.20;0.10;;;10.10;99.90;;;;;;21044184;28;20390;-69
2022/12/03 23:47:20;;;;;;;0.20;0.10;;;9.80;99.90;;;;;;21043879;28;20414;-69
2022/12/03 23:57:24;;;;;;;0.20;0.10;;;9.60;99.90;;;;;;21043205;28;20398;-68
